DTTA Airport Information

Runway Information
Runway 01 Length 10499 ft width 148 ft
Elevation 13 ft Threshold 0 ft Heading 12
Runway 19 Length 10499 ft Width 148 ft
Elevation 21 ft Threshold 0 ft Heading 192
Runway 11 Length 9318 ft width 148 ft
Elevation 19 ft Threshold 0 ft Heading 113
Runway 29 Length 9318 ft Width 148 ft
Elevation 11 ft Threshold 657 ft Heading 293
Airport Frequencies
Type APP Name TUNIS APP Frequency 121.2 MHZ
Type ATIS Name TUNIS ATIS Frequency 118.675 MHZ
Type GND Name TUNIS GND Frequency 121.9 MHZ
Type TWR Name TUNIS TWR Frequency 118.1 MHZ
Airport Navaids
Type NDB Name Tunis Frequency 386 KHZ
Type NDB Name Tunis Frequency 325 KHZ
Type VOR-DME Name Tunis Frequency 116500 KHZ
Airport Weather Information & NOTAM
ADDS - METARS form results

(1754 UTC 18 March 2019)
Data provider http://aviationweather.gov/metar/data/
 
METAR text: DTTA 181730Z 30012KT 260V340 9999 FEW030 15/06 Q1017
Conditions at: DTTA (TUNIS/CARTHAGE , TN) observed 1730 UTC 18 March 2019
Temperature: 15.0°C (59°F)
Dewpoint: 6.0°C (43°F) [RH = 55%]
Pressure (altimeter): 30.03 inches Hg (1017.0 mb)
Winds: from the WNW (300 degrees) at 14 MPH (12 knots; 6.2 m/s)
Visibility: 6 or more miles (10+ km)
Ceiling: at least 12,000 feet AGL
Clouds: few clouds at 3000 feet AGL
Weather: no significant weather observed at this time

METAR text: DTTA 181700Z 30014KT 9999 FEW030 16/05 Q1017
Conditions at: DTTA (TUNIS/CARTHAGE , TN) observed 1700 UTC 18 March 2019
Temperature: 16.0°C (61°F)
Dewpoint: 5.0°C (41°F) [RH = 48%]
Pressure (altimeter): 30.03 inches Hg (1017.0 mb)
Winds: from the WNW (300 degrees) at 16 MPH (14 knots; 7.2 m/s)
Visibility: 6 or more miles (10+ km)
Ceiling: at least 12,000 feet AGL
Clouds: few clouds at 3000 feet AGL
Weather: no significant weather observed at this time

Forecast for: DTTA (TUNIS/CARTHAGE , TN)
Text: TAF DTTA 181700Z 1818/1918 31016KT 9999 SCT026
Forecast period: 1800 UTC 18 March 2019 to 1800 UTC 19 March 2019
Forecast type: FROM: standard forecast or significant change
Winds: from the NW (310 degrees) at 18 MPH (16 knots; 8.2 m/s)
Visibility: 6 or more miles 10+ km)
Ceiling: at least 12,000 feet AGL
Clouds: scattered clouds at 2600 feet AGL
Weather: no significant weather forecast for this period
Text: PROB30
Forecast period: 0000 to 0700 UTC 19 March 2019
Forecast type: TEMPORARY: The following changes expected for less than half the time period
Winds: from the NNW (330 degrees) at 22 MPH (19 knots; 9.8 m/s)
gusting to 33 MPH (29 knots; 14.9 m/s)
Visibility: 4 miles (6 km)
Ceiling: 2300 feet AGL
Clouds: broken clouds at 2300 feet AGL
Weather: -SHRA  (light rain showers)